Preeceville, Canada
Current Conditions -  °F | °C
As of 5:27 AM on Thursday 27 Nov 2014 (Local Time) from CYQV Reporting Station
Overcast Overcast  
Wind Chill: -15°   Ceiling: 700
Heat Index: -4°   Visibility: 9mi
Dew Point: -9°   Wind: 5mph
Humidity: 78%   Direction: 130°SE
Pressure: 30.24"   Gusts: NA
Location:  51.95°N, 102.67°W
Report Text: CYQV 271127Z AUTO 13004KT 9SM OVC007 M20/M23 A3024 RMK SLP298
Loading
Personal Weather Stations






























Interactive Weather Map New forecast layout! Learn more

10-Day Weather Forecast

Advertisements
Track Severe Weather on mobile